sensor_id;sensor_type;location;lat;lon;timestamp;pressure;altitude;pressure_sealevel;temperature;humidity
81299;BME280;70766;53.170;18.160;2024-01-25T00:01:47;100158.90;;;5.58;100.00
81299;BME280;70766;53.170;18.160;2024-01-25T00:04:15;100137.32;;;5.56;100.00
81299;BME280;70766;53.170;18.160;2024-01-25T00:06:44;100166.07;;;5.53;100.00
81299;BME280;70766;53.170;18.160;2024-01-25T00:09:12;100161.61;;;5.53;100.00
81299;BME280;70766;53.170;18.160;2024-01-25T00:11:40;100181.51;;;5.49;100.00
81299;BME280;70766;53.170;18.160;2024-01-25T00:14:08;100177.66;;;5.51;100.00
81299;BME280;70766;53.170;18.160;2024-01-25T00:16:41;100180.94;;;5.50;100.00
81299;BME280;70766;53.170;18.160;2024-01-25T00:19:10;100189.95;;;5.47;100.00
81299;BME280;70766;53.170;18.160;2024-01-25T00:21:42;100188.92;;;5.41;100.00
81299;BME280;70766;53.170;18.160;2024-01-25T00:24:12;100184.75;;;5.42;100.00
81299;BME280;70766;53.170;18.160;2024-01-25T00:26:40;100185.61;;;5.38;100.00
81299;BME280;70766;53.170;18.160;2024-01-25T00:29:09;100185.64;;;5.35;100.00
81299;BME280;70766;53.170;18.160;2024-01-25T00:31:37;100181.96;;;5.32;100.00
81299;BME280;70766;53.170;18.160;2024-01-25T00:34:05;100190.48;;;5.29;100.00
81299;BME280;70766;53.170;18.160;2024-01-25T00:36:34;100191.25;;;5.25;100.00
81299;BME280;70766;53.170;18.160;2024-01-25T00:39:02;100197.48;;;5.24;100.00
81299;BME280;70766;53.170;18.160;2024-01-25T00:41:32;100206.36;;;5.26;100.00
81299;BME280;70766;53.170;18.160;2024-01-25T00:44:01;100200.91;;;5.25;100.00
81299;BME280;70766;53.170;18.160;2024-01-25T00:46:30;100201.48;;;5.26;100.00
81299;BME280;70766;53.170;18.160;2024-01-25T00:48:58;100203.98;;;5.23;100.00
81299;BME280;70766;53.170;18.160;2024-01-25T00:51:27;100205.65;;;5.21;100.00
81299;BME280;70766;53.170;18.160;2024-01-25T00:53:55;100199.97;;;5.22;100.00
81299;BME280;70766;53.170;18.160;2024-01-25T00:56:24;100200.21;;;5.26;100.00
81299;BME280;70766;53.170;18.160;2024-01-25T00:58:52;100205.87;;;5.25;100.00
81299;BME280;70766;53.170;18.160;2024-01-25T01:01:21;100201.11;;;5.22;100.00
81299;BME280;70766;53.170;18.160;2024-01-25T01:03:51;100204.30;;;5.22;100.00
81299;BME280;70766;53.170;18.160;2024-01-25T01:06:21;100202.09;;;5.23;100.00
81299;BME280;70766;53.170;18.160;2024-01-25T01:08:50;100203.66;;;5.23;100.00
81299;BME280;70766;53.170;18.160;2024-01-25T01:11:18;100201.65;;;5.23;100.00
81299;BME280;70766;53.170;18.160;2024-01-25T01:13:46;100198.74;;;5.24;100.00
81299;BME280;70766;53.170;18.160;2024-01-25T01:16:15;100204.02;;;5.21;100.00
81299;BME280;70766;53.170;18.160;2024-01-25T01:18:43;100196.66;;;5.22;100.00
81299;BME280;70766;53.170;18.160;2024-01-25T01:21:11;100202.59;;;5.20;100.00
81299;BME280;70766;53.170;18.160;2024-01-25T01:23:40;100199.52;;;5.21;100.00
81299;BME280;70766;53.170;18.160;2024-01-25T01:26:08;100190.88;;;5.23;100.00
81299;BME280;70766;53.170;18.160;2024-01-25T01:28:36;100188.67;;;5.25;100.00
81299;BME280;70766;53.170;18.160;2024-01-25T01:31:04;100181.34;;;5.24;100.00
81299;BME280;70766;53.170;18.160;2024-01-25T01:33:32;100184.25;;;5.26;100.00
81299;BME280;70766;53.170;18.160;2024-01-25T01:36:00;100190.12;;;5.26;100.00
81299;BME280;70766;53.170;18.160;2024-01-25T01:38:29;100189.09;;;5.27;100.00
81299;BME280;70766;53.170;18.160;2024-01-25T01:40:59;100185.08;;;5.32;100.00
81299;BME280;70766;53.170;18.160;2024-01-25T01:43:27;100185.00;;;5.32;100.00
81299;BME280;70766;53.170;18.160;2024-01-25T01:46:01;100189.09;;;5.29;100.00
81299;BME280;70766;53.170;18.160;2024-01-25T01:49:01;100183.10;;;5.32;100.00
81299;BME280;70766;53.170;18.160;2024-01-25T01:51:30;100186.18;;;5.34;100.00
81299;BME280;70766;53.170;18.160;2024-01-25T01:54:00;100188.69;;;5.34;100.00
81299;BME280;70766;53.170;18.160;2024-01-25T01:56:31;100189.41;;;5.32;100.00
81299;BME280;70766;53.170;18.160;2024-01-25T01:59:02;100184.38;;;5.31;100.00
81299;BME280;70766;53.170;18.160;2024-01-25T02:01:31;100182.58;;;5.28;100.00
81299;BME280;70766;53.170;18.160;2024-01-25T02:04:01;100182.70;;;5.29;100.00
81299;BME280;70766;53.170;18.160;2024-01-25T02:06:29;100182.21;;;5.32;100.00
81299;BME280;70766;53.170;18.160;2024-01-25T02:08:59;100192.27;;;5.31;100.00
81299;BME280;70766;53.170;18.160;2024-01-25T02:11:28;100192.93;;;5.31;100.00
81299;BME280;70766;53.170;18.160;2024-01-25T02:13:56;100176.77;;;5.29;100.00
81299;BME280;70766;53.170;18.160;2024-01-25T02:16:24;100184.61;;;5.27;100.00
81299;BME280;70766;53.170;18.160;2024-01-25T02:18:53;100185.07;;;5.30;100.00
81299;BME280;70766;53.170;18.160;2024-01-25T02:21:26;100190.65;;;5.31;100.00
81299;BME280;70766;53.170;18.160;2024-01-25T02:23:54;100192.61;;;5.30;100.00
81299;BME280;70766;53.170;18.160;2024-01-25T02:26:23;100197.97;;;5.28;100.00
81299;BME280;70766;53.170;18.160;2024-01-25T02:28:51;100203.82;;;5.26;100.00
81299;BME280;70766;53.170;18.160;2024-01-25T02:31:22;100209.24;;;5.21;100.00
81299;BME280;70766;53.170;18.160;2024-01-25T02:33:50;100204.98;;;5.21;100.00
81299;BME280;70766;53.170;18.160;2024-01-25T02:36:22;100202.14;;;5.20;100.00
81299;BME280;70766;53.170;18.160;2024-01-25T02:38:50;100194.77;;;5.19;100.00
81299;BME280;70766;53.170;18.160;2024-01-25T02:41:18;100205.70;;;5.18;100.00
81299;BME280;70766;53.170;18.160;2024-01-25T02:43:46;100203.45;;;5.17;100.00
81299;BME280;70766;53.170;18.160;2024-01-25T02:46:14;100197.06;;;5.18;100.00
81299;BME280;70766;53.170;18.160;2024-01-25T02:48:42;100199.10;;;5.17;100.00
81299;BME280;70766;53.170;18.160;2024-01-25T02:51:12;100200.52;;;5.20;100.00
81299;BME280;70766;53.170;18.160;2024-01-25T02:53:40;100204.59;;;5.21;100.00
81299;BME280;70766;53.170;18.160;2024-01-25T02:56:08;100200.17;;;5.20;100.00
81299;BME280;70766;53.170;18.160;2024-01-25T02:58:37;100209.09;;;5.15;100.00
81299;BME280;70766;53.170;18.160;2024-01-25T03:01:05;100210.48;;;5.14;100.00
81299;BME280;70766;53.170;18.160;2024-01-25T03:03:33;100214.48;;;5.16;100.00
81299;BME280;70766;53.170;18.160;2024-01-25T03:06:02;100217.31;;;5.15;100.00
81299;BME280;70766;53.170;18.160;2024-01-25T03:08:30;100211.00;;;5.13;100.00
81299;BME280;70766;53.170;18.160;2024-01-25T03:10:59;100215.64;;;5.12;100.00
81299;BME280;70766;53.170;18.160;2024-01-25T03:13:27;100225.24;;;5.07;100.00
81299;BME280;70766;53.170;18.160;2024-01-25T03:15:55;100216.67;;;5.04;100.00
81299;BME280;70766;53.170;18.160;2024-01-25T03:18:23;100220.36;;;4.99;100.00
81299;BME280;70766;53.170;18.160;2024-01-25T03:20:51;100231.92;;;4.93;100.00
81299;BME280;70766;53.170;18.160;2024-01-25T03:23:19;100235.52;;;4.92;100.00
81299;BME280;70766;53.170;18.160;2024-01-25T03:25:47;100247.04;;;4.88;100.00
81299;BME280;70766;53.170;18.160;2024-01-25T03:28:16;100250.05;;;4.81;100.00
81299;BME280;70766;53.170;18.160;2024-01-25T03:30:46;100253.92;;;4.77;100.00
81299;BME280;70766;53.170;18.160;2024-01-25T03:33:15;100256.95;;;4.77;100.00
81299;BME280;70766;53.170;18.160;2024-01-25T03:35:43;100263.20;;;4.75;100.00
81299;BME280;70766;53.170;18.160;2024-01-25T03:38:11;100271.26;;;4.75;100.00
81299;BME280;70766;53.170;18.160;2024-01-25T03:40:41;100265.98;;;4.73;100.00
81299;BME280;70766;53.170;18.160;2024-01-25T03:43:12;100274.08;;;4.68;100.00
81299;BME280;70766;53.170;18.160;2024-01-25T03:45:51;100274.25;;;4.68;100.00
81299;BME280;70766;53.170;18.160;2024-01-25T03:48:20;100274.80;;;4.65;100.00
81299;BME280;70766;53.170;18.160;2024-01-25T03:50:50;100273.81;;;4.61;100.00
81299;BME280;70766;53.170;18.160;2024-01-25T03:53:18;100278.73;;;4.57;100.00
81299;BME280;70766;53.170;18.160;2024-01-25T03:55:47;100277.66;;;4.53;100.00
81299;BME280;70766;53.170;18.160;2024-01-25T03:58:18;100272.75;;;4.53;100.00
81299;BME280;70766;53.170;18.160;2024-01-25T04:00:46;100276.95;;;4.52;100.00
81299;BME280;70766;53.170;18.160;2024-01-25T04:03:15;100290.55;;;4.46;100.00
81299;BME280;70766;53.170;18.160;2024-01-25T04:05:44;100275.55;;;4.48;100.00
81299;BME280;70766;53.170;18.160;2024-01-25T04:08:12;100282.14;;;4.47;100.00
81299;BME280;70766;53.170;18.160;2024-01-25T04:10:41;100271.02;;;4.48;100.00
81299;BME280;70766;53.170;18.160;2024-01-25T04:13:09;100278.02;;;4.46;100.00
81299;BME280;70766;53.170;18.160;2024-01-25T04:15:37;100280.70;;;4.47;100.00
81299;BME280;70766;53.170;18.160;2024-01-25T04:18:05;100284.40;;;4.42;100.00
81299;BME280;70766;53.170;18.160;2024-01-25T04:20:34;100293.34;;;4.41;100.00
81299;BME280;70766;53.170;18.160;2024-01-25T04:23:03;100288.06;;;4.41;100.00
81299;BME280;70766;53.170;18.160;2024-01-25T04:25:31;100291.95;;;4.41;100.00
81299;BME280;70766;53.170;18.160;2024-01-25T04:28:01;100288.38;;;4.38;100.00
81299;BME280;70766;53.170;18.160;2024-01-25T04:30:30;100290.79;;;4.39;100.00
81299;BME280;70766;53.170;18.160;2024-01-25T04:33:02;100293.39;;;4.37;100.00
81299;BME280;70766;53.170;18.160;2024-01-25T04:35:30;100295.19;;;4.34;100.00
81299;BME280;70766;53.170;18.160;2024-01-25T04:38:00;100297.98;;;4.37;100.00
81299;BME280;70766;53.170;18.160;2024-01-25T04:40:29;100294.27;;;4.35;100.00
81299;BME280;70766;53.170;18.160;2024-01-25T04:42:57;100303.08;;;4.36;100.00
81299;BME280;70766;53.170;18.160;2024-01-25T04:45:27;100299.16;;;4.37;100.00
81299;BME280;70766;53.170;18.160;2024-01-25T04:47:55;100294.27;;;4.40;100.00
81299;BME280;70766;53.170;18.160;2024-01-25T04:50:23;100303.48;;;4.37;100.00
81299;BME280;70766;53.170;18.160;2024-01-25T04:52:51;100300.59;;;4.37;100.00
81299;BME280;70766;53.170;18.160;2024-01-25T04:55:19;100302.68;;;4.39;100.00
81299;BME280;70766;53.170;18.160;2024-01-25T04:57:48;100309.39;;;4.40;100.00
81299;BME280;70766;53.170;18.160;2024-01-25T05:00:22;100313.96;;;4.38;100.00
81299;BME280;70766;53.170;18.160;2024-01-25T05:02:50;100325.38;;;4.34;100.00
81299;BME280;70766;53.170;18.160;2024-01-25T05:05:18;100322.20;;;4.35;100.00
81299;BME280;70766;53.170;18.160;2024-01-25T05:07:46;100325.61;;;4.33;100.00
81299;BME280;70766;53.170;18.160;2024-01-25T05:10:16;100319.03;;;4.33;100.00
81299;BME280;70766;53.170;18.160;2024-01-25T05:12:44;100325.50;;;4.35;100.00
81299;BME280;70766;53.170;18.160;2024-01-25T05:15:13;100322.86;;;4.37;100.00
81299;BME280;70766;53.170;18.160;2024-01-25T05:17:41;100329.33;;;4.38;100.00
81299;BME280;70766;53.170;18.160;2024-01-25T05:20:09;100331.95;;;4.40;100.00
81299;BME280;70766;53.170;18.160;2024-01-25T05:22:38;100334.59;;;4.41;100.00
81299;BME280;70766;53.170;18.160;2024-01-25T05:25:08;100337.12;;;4.41;100.00
81299;BME280;70766;53.170;18.160;2024-01-25T05:27:38;100339.77;;;4.40;100.00
81299;BME280;70766;53.170;18.160;2024-01-25T05:30:07;100339.20;;;4.41;100.00
81299;BME280;70766;53.170;18.160;2024-01-25T05:32:35;100343.47;;;4.44;100.00
81299;BME280;70766;53.170;18.160;2024-01-25T05:35:04;100340.02;;;4.43;100.00
81299;BME280;70766;53.170;18.160;2024-01-25T05:37:33;100337.75;;;4.43;100.00
81299;BME280;70766;53.170;18.160;2024-01-25T05:40:04;100344.02;;;4.47;100.00
81299;BME280;70766;53.170;18.160;2024-01-25T05:42:33;100339.98;;;4.48;100.00
81299;BME280;70766;53.170;18.160;2024-01-25T05:45:02;100343.53;;;4.49;100.00
81299;BME280;70766;53.170;18.160;2024-01-25T05:47:31;100344.20;;;4.51;100.00
81299;BME280;70766;53.170;18.160;2024-01-25T05:50:00;100343.10;;;4.51;100.00
81299;BME280;70766;53.170;18.160;2024-01-25T05:52:29;100341.92;;;4.52;100.00
81299;BME280;70766;53.170;18.160;2024-01-25T05:54:57;100338.83;;;4.54;100.00
81299;BME280;70766;53.170;18.160;2024-01-25T05:57:28;100334.61;;;4.54;100.00
81299;BME280;70766;53.170;18.160;2024-01-25T05:59:57;100345.59;;;4.57;100.00
81299;BME280;70766;53.170;18.160;2024-01-25T06:02:25;100345.90;;;4.56;100.00
81299;BME280;70766;53.170;18.160;2024-01-25T06:04:53;100351.39;;;4.56;100.00
81299;BME280;70766;53.170;18.160;2024-01-25T06:07:22;100348.59;;;4.58;100.00
81299;BME280;70766;53.170;18.160;2024-01-25T06:09:51;100351.35;;;4.64;100.00
81299;BME280;70766;53.170;18.160;2024-01-25T06:12:19;100363.54;;;4.66;100.00
81299;BME280;70766;53.170;18.160;2024-01-25T06:14:48;100367.11;;;4.68;100.00
81299;BME280;70766;53.170;18.160;2024-01-25T06:17:20;100363.32;;;4.69;100.00
81299;BME280;70766;53.170;18.160;2024-01-25T06:19:48;100364.76;;;4.70;100.00
81299;BME280;70766;53.170;18.160;2024-01-25T06:22:17;100375.69;;;4.72;100.00
81299;BME280;70766;53.170;18.160;2024-01-25T06:24:45;100373.55;;;4.72;100.00
81299;BME280;70766;53.170;18.160;2024-01-25T06:27:14;100378.69;;;4.73;100.00
81299;BME280;70766;53.170;18.160;2024-01-25T06:29:42;100376.31;;;4.74;100.00
81299;BME280;70766;53.170;18.160;2024-01-25T06:32:11;100380.81;;;4.73;100.00
81299;BME280;70766;53.170;18.160;2024-01-25T06:34:50;100384.65;;;4.74;100.00
81299;BME280;70766;53.170;18.160;2024-01-25T06:37:20;100381.38;;;4.73;100.00
81299;BME280;70766;53.170;18.160;2024-01-25T06:39:49;100386.34;;;4.74;100.00
81299;BME280;70766;53.170;18.160;2024-01-25T06:42:20;100388.58;;;4.75;100.00
81299;BME280;70766;53.170;18.160;2024-01-25T06:44:50;100401.67;;;4.72;100.00
81299;BME280;70766;53.170;18.160;2024-01-25T06:47:18;100400.31;;;4.73;100.00
81299;BME280;70766;53.170;18.160;2024-01-25T06:49:49;100412.17;;;4.73;100.00
81299;BME280;70766;53.170;18.160;2024-01-25T06:52:20;100421.63;;;4.74;100.00
81299;BME280;70766;53.170;18.160;2024-01-25T06:54:49;100426.66;;;4.75;100.00
81299;BME280;70766;53.170;18.160;2024-01-25T06:57:22;100429.95;;;4.77;100.00
81299;BME280;70766;53.170;18.160;2024-01-25T06:59:50;100446.37;;;4.80;100.00
81299;BME280;70766;53.170;18.160;2024-01-25T07:02:19;100456.36;;;4.81;100.00
81299;BME280;70766;53.170;18.160;2024-01-25T07:04:48;100468.61;;;4.79;100.00
81299;BME280;70766;53.170;18.160;2024-01-25T07:07:17;100470.15;;;4.81;100.00
81299;BME280;70766;53.170;18.160;2024-01-25T07:09:46;100480.89;;;4.85;100.00
81299;BME280;70766;53.170;18.160;2024-01-25T07:12:14;100481.19;;;4.81;100.00
81299;BME280;70766;53.170;18.160;2024-01-25T07:14:42;100494.82;;;4.82;100.00
81299;BME280;70766;53.170;18.160;2024-01-25T07:17:10;100497.83;;;4.80;100.00
81299;BME280;70766;53.170;18.160;2024-01-25T07:19:38;100494.80;;;4.80;100.00
81299;BME280;70766;53.170;18.160;2024-01-25T07:22:07;100505.82;;;4.77;100.00
81299;BME280;70766;53.170;18.160;2024-01-25T07:24:36;100504.91;;;4.76;100.00
81299;BME280;70766;53.170;18.160;2024-01-25T07:27:04;100508.73;;;4.73;100.00
81299;BME280;70766;53.170;18.160;2024-01-25T07:29:33;100520.05;;;4.71;100.00
81299;BME280;70766;53.170;18.160;2024-01-25T07:32:02;100525.31;;;4.71;100.00
81299;BME280;70766;53.170;18.160;2024-01-25T07:34:30;100530.24;;;4.72;100.00
81299;BME280;70766;53.170;18.160;2024-01-25T07:36:58;100533.83;;;4.71;100.00
81299;BME280;70766;53.170;18.160;2024-01-25T07:39:26;100537.42;;;4.71;100.00
81299;BME280;70766;53.170;18.160;2024-01-25T07:41:55;100545.88;;;4.73;100.00
81299;BME280;70766;53.170;18.160;2024-01-25T07:44:23;100545.92;;;4.74;100.00
81299;BME280;70766;53.170;18.160;2024-01-25T07:46:51;100555.59;;;4.76;100.00
81299;BME280;70766;53.170;18.160;2024-01-25T07:49:19;100568.52;;;4.76;100.00
81299;BME280;70766;53.170;18.160;2024-01-25T07:51:47;100563.73;;;4.77;100.00
81299;BME280;70766;53.170;18.160;2024-01-25T07:54:17;100563.55;;;4.79;100.00
81299;BME280;70766;53.170;18.160;2024-01-25T07:56:45;100570.07;;;4.80;100.00
81299;BME280;70766;53.170;18.160;2024-01-25T07:59:13;100576.70;;;4.80;100.00
81299;BME280;70766;53.170;18.160;2024-01-25T08:01:41;100577.31;;;4.82;100.00
81299;BME280;70766;53.170;18.160;2024-01-25T08:04:10;100584.85;;;4.82;100.00
81299;BME280;70766;53.170;18.160;2024-01-25T08:11:13;100590.66;;;4.92;100.00
81299;BME280;70766;53.170;18.160;2024-01-25T08:13:44;100597.11;;;4.95;100.00
81299;BME280;70766;53.170;18.160;2024-01-25T08:16:12;100595.70;;;4.98;100.00
81299;BME280;70766;53.170;18.160;2024-01-25T08:18:41;100602.38;;;4.99;100.00
81299;BME280;70766;53.170;18.160;2024-01-25T08:21:12;100608.37;;;5.02;100.00
81299;BME280;70766;53.170;18.160;2024-01-25T08:23:41;100617.98;;;5.06;100.00
81299;BME280;70766;53.170;18.160;2024-01-25T08:26:10;100617.10;;;5.09;100.00
81299;BME280;70766;53.170;18.160;2024-01-25T08:28:40;100630.17;;;5.11;100.00
81299;BME280;70766;53.170;18.160;2024-01-25T08:31:09;100628.20;;;5.15;100.00
81299;BME280;70766;53.170;18.160;2024-01-25T08:33:39;100626.63;;;5.16;100.00
81299;BME280;70766;53.170;18.160;2024-01-25T08:36:18;100628.52;;;5.24;100.00
81299;BME280;70766;53.170;18.160;2024-01-25T08:38:50;100634.63;;;5.35;100.00
81299;BME280;70766;53.170;18.160;2024-01-25T08:41:18;100645.09;;;5.38;100.00
81299;BME280;70766;53.170;18.160;2024-01-25T08:43:47;100646.42;;;5.43;100.00
81299;BME280;70766;53.170;18.160;2024-01-25T08:46:15;100652.80;;;5.47;100.00
81299;BME280;70766;53.170;18.160;2024-01-25T08:48:44;100642.90;;;5.47;100.00
81299;BME280;70766;53.170;18.160;2024-01-25T08:51:12;100648.09;;;5.51;100.00
81299;BME280;70766;53.170;18.160;2024-01-25T08:53:41;100651.04;;;5.54;100.00
81299;BME280;70766;53.170;18.160;2024-01-25T08:56:09;100655.06;;;5.64;100.00
81299;BME280;70766;53.170;18.160;2024-01-25T08:58:37;100662.68;;;5.67;100.00
81299;BME280;70766;53.170;18.160;2024-01-25T09:01:05;100665.00;;;5.76;100.00
81299;BME280;70766;53.170;18.160;2024-01-25T09:03:34;100673.15;;;5.80;100.00
81299;BME280;70766;53.170;18.160;2024-01-25T09:06:02;100681.77;;;5.84;100.00
81299;BME280;70766;53.170;18.160;2024-01-25T09:08:34;100686.02;;;5.84;100.00
81299;BME280;70766;53.170;18.160;2024-01-25T09:11:03;100687.95;;;5.95;100.00
81299;BME280;70766;53.170;18.160;2024-01-25T09:13:31;100685.59;;;6.02;100.00
81299;BME280;70766;53.170;18.160;2024-01-25T09:16:11;100691.81;;;6.01;99.61
81299;BME280;70766;53.170;18.160;2024-01-25T09:18:40;100703.32;;;6.07;99.84
81299;BME280;70766;53.170;18.160;2024-01-25T09:21:09;100714.45;;;6.03;98.60
81299;BME280;70766;53.170;18.160;2024-01-25T09:23:37;100712.77;;;6.03;98.87
81299;BME280;70766;53.170;18.160;2024-01-25T09:26:05;100723.59;;;6.03;99.13
81299;BME280;70766;53.170;18.160;2024-01-25T09:28:33;100726.70;;;5.97;99.26
81299;BME280;70766;53.170;18.160;2024-01-25T09:31:02;100725.73;;;5.90;99.44
81299;BME280;70766;53.170;18.160;2024-01-25T09:33:32;100736.13;;;5.91;99.75
81299;BME280;70766;53.170;18.160;2024-01-25T09:36:02;100748.58;;;5.88;99.42
81299;BME280;70766;53.170;18.160;2024-01-25T09:38:31;100749.52;;;5.92;99.57
81299;BME280;70766;53.170;18.160;2024-01-25T09:41:01;100760.27;;;5.90;100.00
81299;BME280;70766;53.170;18.160;2024-01-25T09:43:29;100768.10;;;5.81;100.00
81299;BME280;70766;53.170;18.160;2024-01-25T09:46:00;100770.85;;;5.83;100.00
81299;BME280;70766;53.170;18.160;2024-01-25T09:48:28;100773.63;;;5.72;100.00
81299;BME280;70766;53.170;18.160;2024-01-25T09:50:58;100776.50;;;5.69;100.00
81299;BME280;70766;53.170;18.160;2024-01-25T09:53:29;100778.36;;;5.67;100.00
81299;BME280;70766;53.170;18.160;2024-01-25T09:56:10;100783.95;;;5.58;100.00
81299;BME280;70766;53.170;18.160;2024-01-25T09:58:42;100786.25;;;5.55;100.00
81299;BME280;70766;53.170;18.160;2024-01-25T10:01:15;100788.94;;;5.53;100.00
81299;BME280;70766;53.170;18.160;2024-01-25T10:03:45;100791.41;;;5.47;100.00
81299;BME280;70766;53.170;18.160;2024-01-25T10:06:15;100788.20;;;5.49;100.00
81299;BME280;70766;53.170;18.160;2024-01-25T10:08:45;100783.33;;;5.49;100.00
81299;BME280;70766;53.170;18.160;2024-01-25T10:11:13;100790.31;;;5.55;100.00
81299;BME280;70766;53.170;18.160;2024-01-25T10:13:46;100787.28;;;5.70;100.00
81299;BME280;70766;53.170;18.160;2024-01-25T10:16:17;100789.75;;;5.71;100.00
81299;BME280;70766;53.170;18.160;2024-01-25T10:18:47;100797.64;;;5.77;100.00
81299;BME280;70766;53.170;18.160;2024-01-25T10:21:16;100801.30;;;5.79;100.00
81299;BME280;70766;53.170;18.160;2024-01-25T10:23:46;100803.42;;;5.82;100.00
81299;BME280;70766;53.170;18.160;2024-01-25T10:26:20;100804.52;;;5.81;100.00
81299;BME280;70766;53.170;18.160;2024-01-25T10:28:54;100812.48;;;5.76;100.00
81299;BME280;70766;53.170;18.160;2024-01-25T10:31:30;100813.19;;;5.76;100.00
81299;BME280;70766;53.170;18.160;2024-01-25T10:34:00;100818.40;;;5.82;100.00
81299;BME280;70766;53.170;18.160;2024-01-25T10:36:31;100826.11;;;5.78;100.00
81299;BME280;70766;53.170;18.160;2024-01-25T10:39:02;100828.79;;;5.80;100.00
81299;BME280;70766;53.170;18.160;2024-01-25T10:41:34;100826.08;;;5.86;100.00
81299;BME280;70766;53.170;18.160;2024-01-25T10:44:02;100834.29;;;5.80;100.00
81299;BME280;70766;53.170;18.160;2024-01-25T10:46:32;100831.98;;;5.90;100.00
81299;BME280;70766;53.170;18.160;2024-01-25T10:49:02;100834.50;;;5.88;100.00
81299;BME280;70766;53.170;18.160;2024-01-25T10:51:31;100844.81;;;5.86;100.00
81299;BME280;70766;53.170;18.160;2024-01-25T10:54:00;100844.90;;;5.77;100.00
81299;BME280;70766;53.170;18.160;2024-01-25T10:56:29;100853.59;;;5.72;100.00
81299;BME280;70766;53.170;18.160;2024-01-25T10:58:57;100850.26;;;5.74;99.97
81299;BME280;70766;53.170;18.160;2024-01-25T11:01:27;100851.34;;;5.68;100.00
81299;BME280;70766;53.170;18.160;2024-01-25T11:03:55;100851.90;;;5.67;100.00
81299;BME280;70766;53.170;18.160;2024-01-25T11:06:27;100857.88;;;5.63;100.00
81299;BME280;70766;53.170;18.160;2024-01-25T11:09:05;100856.89;;;5.57;100.00
81299;BME280;70766;53.170;18.160;2024-01-25T11:11:35;100863.17;;;5.59;100.00
81299;BME280;70766;53.170;18.160;2024-01-25T11:14:11;100866.87;;;5.57;100.00
81299;BME280;70766;53.170;18.160;2024-01-25T11:16:41;100869.70;;;5.47;100.00
81299;BME280;70766;53.170;18.160;2024-01-25T11:19:21;100873.91;;;5.49;100.00
81299;BME280;70766;53.170;18.160;2024-01-25T11:21:52;100878.01;;;5.48;100.00
81299;BME280;70766;53.170;18.160;2024-01-25T11:24:23;100877.00;;;5.46;100.00
81299;BME280;70766;53.170;18.160;2024-01-25T11:26:54;100892.09;;;5.45;100.00
81299;BME280;70766;53.170;18.160;2024-01-25T11:29:22;100895.48;;;5.51;100.00
81299;BME280;70766;53.170;18.160;2024-01-25T11:31:52;100902.40;;;5.47;100.00
81299;BME280;70766;53.170;18.160;2024-01-25T11:34:21;100907.80;;;5.54;100.00
81299;BME280;70766;53.170;18.160;2024-01-25T11:36:50;100908.20;;;5.57;100.00
81299;BME280;70766;53.170;18.160;2024-01-25T11:39:18;100908.80;;;5.53;100.00
81299;BME280;70766;53.170;18.160;2024-01-25T11:41:47;100912.91;;;5.53;100.00
81299;BME280;70766;53.170;18.160;2024-01-25T11:44:16;100919.21;;;5.54;100.00
81299;BME280;70766;53.170;18.160;2024-01-25T11:46:45;100919.47;;;5.50;100.00
81299;BME280;70766;53.170;18.160;2024-01-25T11:49:14;100925.35;;;5.49;100.00
81299;BME280;70766;53.170;18.160;2024-01-25T11:51:42;100930.10;;;5.52;100.00
81299;BME280;70766;53.170;18.160;2024-01-25T11:54:11;100928.83;;;5.48;100.00
81299;BME280;70766;53.170;18.160;2024-01-25T11:56:40;100938.27;;;5.39;100.00
81299;BME280;70766;53.170;18.160;2024-01-25T11:59:10;100947.54;;;5.33;100.00
81299;BME280;70766;53.170;18.160;2024-01-25T12:01:40;100953.74;;;5.27;100.00
81299;BME280;70766;53.170;18.160;2024-01-25T12:04:12;100961.88;;;5.22;100.00
81299;BME280;70766;53.170;18.160;2024-01-25T12:06:42;100966.02;;;5.21;100.00
81299;BME280;70766;53.170;18.160;2024-01-25T12:09:11;100961.31;;;5.21;100.00
81299;BME280;70766;53.170;18.160;2024-01-25T12:11:41;100970.23;;;5.13;100.00
81299;BME280;70766;53.170;18.160;2024-01-25T12:14:10;100973.82;;;5.10;100.00
81299;BME280;70766;53.170;18.160;2024-01-25T12:16:39;100977.30;;;5.13;100.00
81299;BME280;70766;53.170;18.160;2024-01-25T12:19:08;100978.67;;;5.14;100.00
81299;BME280;70766;53.170;18.160;2024-01-25T12:21:37;100984.69;;;5.14;100.00
81299;BME280;70766;53.170;18.160;2024-01-25T12:24:07;100984.50;;;5.09;100.00
81299;BME280;70766;53.170;18.160;2024-01-25T12:26:36;100988.85;;;5.07;100.00
81299;BME280;70766;53.170;18.160;2024-01-25T12:29:05;100988.80;;;5.06;100.00
81299;BME280;70766;53.170;18.160;2024-01-25T12:31:34;100990.02;;;5.12;100.00
81299;BME280;70766;53.170;18.160;2024-01-25T12:34:03;100991.70;;;5.14;100.00
81299;BME280;70766;53.170;18.160;2024-01-25T12:36:31;100996.55;;;5.19;100.00
81299;BME280;70766;53.170;18.160;2024-01-25T12:39:01;101003.87;;;5.28;100.00
81299;BME280;70766;53.170;18.160;2024-01-25T12:41:30;101011.48;;;5.30;100.00
81299;BME280;70766;53.170;18.160;2024-01-25T12:43:59;101013.84;;;5.26;100.00
81299;BME280;70766;53.170;18.160;2024-01-25T12:46:28;101015.55;;;5.24;100.00
81299;BME280;70766;53.170;18.160;2024-01-25T12:49:01;101020.83;;;5.25;100.00
81299;BME280;70766;53.170;18.160;2024-01-25T12:51:31;101026.40;;;5.29;100.00
81299;BME280;70766;53.170;18.160;2024-01-25T12:54:00;101031.63;;;5.27;100.00
81299;BME280;70766;53.170;18.160;2024-01-25T12:56:29;101031.95;;;5.30;100.00